createdAt,value
2022-08-08T00:00:53.802Z,92.60
2022-08-08T00:02:03.241Z,92.20
2022-08-08T00:02:59.617Z,92.20
2022-08-08T00:04:16.308Z,92.30
2022-08-08T00:05:44.302Z,92.30
2022-08-08T00:06:55.618Z,92.30
2022-08-08T00:08:05.142Z,92.80
2022-08-08T00:09:16.878Z,93.00
2022-08-08T00:10:28.503Z,92.90
2022-08-08T00:12:03.080Z,92.30
2022-08-08T00:13:10.983Z,92.20
2022-08-08T00:14:48.467Z,92.10
2022-08-08T00:16:00.918Z,92.00
2022-08-08T00:17:23.446Z,92.60
2022-08-08T00:18:35.695Z,92.90
2022-08-08T00:19:46.738Z,92.90
2022-08-08T00:20:57.447Z,93.20
2022-08-08T00:22:04.130Z,93.20
2022-08-08T00:23:11.510Z,93.20
2022-08-08T00:24:24.021Z,93.30
2022-08-08T00:25:39.284Z,93.30
2022-08-08T00:26:53.797Z,93.00
2022-08-08T00:28:00.492Z,93.10
2022-08-08T00:29:08.857Z,93.00
2022-08-08T00:30:15.877Z,92.90
2022-08-08T00:32:28.743Z,93.10
2022-08-08T00:32:52.679Z,93.40
2022-08-08T00:34:19.813Z,93.20
2022-08-08T00:35:37.727Z,93.30
2022-08-08T00:36:47.406Z,93.90
2022-08-08T00:38:16.769Z,93.30
2022-08-08T00:41:11.218Z,93.20
2022-08-08T00:41:55.143Z,93.40
2022-08-08T00:43:40.693Z,94.00
2022-08-08T00:45:29.458Z,93.60
2022-08-08T00:47:01.406Z,93.50
2022-08-08T00:48:43.489Z,93.40
2022-08-08T00:50:52.281Z,93.30
2022-08-08T00:52:19.896Z,93.00
2022-08-08T00:53:57.322Z,93.10
2022-08-08T00:55:53.672Z,93.20
2022-08-08T00:57:34.068Z,93.10
2022-08-08T00:59:08.400Z,93.10
2022-08-08T01:00:13.659Z,93.50
2022-08-08T01:01:37.571Z,93.80
2022-08-08T01:03:58.316Z,93.80
2022-08-08T01:05:29.272Z,93.90
2022-08-08T01:07:23.673Z,93.90
2022-08-08T01:09:35.434Z,94.00
2022-08-08T01:10:57.930Z,93.70
2022-08-08T01:12:29.705Z,93.00
2022-08-08T01:13:58.897Z,93.20
2022-08-08T01:15:54.233Z,93.10
2022-08-08T01:17:53.774Z,93.30
2022-08-08T01:20:01.935Z,93.00
2022-08-08T01:22:11.717Z,93.20
2022-08-08T01:24:05.558Z,93.30
2022-08-08T01:25:43.854Z,93.50
2022-08-08T01:27:33.219Z,93.50
2022-08-08T01:29:18.138Z,93.30
2022-08-08T01:31:10.529Z,93.30
2022-08-08T01:33:00.564Z,93.60
2022-08-08T01:34:42.415Z,94.00
2022-08-08T01:36:14.859Z,94.00
2022-08-08T01:37:57.559Z,93.90
2022-08-08T01:39:23.446Z,93.80
2022-08-08T01:40:32.836Z,94.00
2022-08-08T01:41:53.091Z,94.10
2022-08-08T01:43:05.165Z,94.30
2022-08-08T01:44:26.434Z,94.30
2022-08-08T01:45:54.271Z,94.40
2022-08-08T01:47:55.541Z,94.50
2022-08-08T01:48:53.088Z,94.70
2022-08-08T01:50:05.539Z,94.50
2022-08-08T01:52:54.422Z,94.20
2022-08-08T01:55:16.306Z,94.30
2022-08-08T01:55:26.481Z,93.90
2022-08-08T01:56:30.011Z,93.90
2022-08-08T01:58:11.239Z,93.90
2022-08-08T01:59:37.795Z,94.10
2022-08-08T02:01:17.455Z,93.80
2022-08-08T02:02:41.443Z,94.10
2022-08-08T02:04:01.720Z,93.80
2022-08-08T02:05:19.489Z,93.80
2022-08-08T02:06:36.626Z,94.00
2022-08-08T02:08:00.277Z,94.50
2022-08-08T02:09:16.037Z,94.40
2022-08-08T02:10:44.904Z,94.20
2022-08-08T02:11:59.860Z,94.50
2022-08-08T02:13:10.834Z,94.30
2022-08-08T02:14:49.840Z,94.20
2022-08-08T02:16:21.254Z,94.20
2022-08-08T02:17:35.283Z,94.20
2022-08-08T02:18:58.562Z,94.50
2022-08-08T02:20:14.694Z,94.50
2022-08-08T02:21:42.659Z,94.70
2022-08-08T02:22:55.383Z,94.20
2022-08-08T02:24:14.782Z,94.50
2022-08-08T02:25:22.949Z,94.60
2022-08-08T02:26:42.515Z,94.00
2022-08-08T02:27:54.138Z,94.70
2022-08-08T02:29:20.821Z,94.20
2022-08-08T02:30:34.714Z,94.10
2022-08-08T02:31:59.607Z,93.90
2022-08-08T02:33:21.514Z,94.30
2022-08-08T02:35:08.061Z,94.40
2022-08-08T02:36:24.339Z,94.10
2022-08-08T02:37:53.335Z,94.10
2022-08-08T02:39:42.388Z,94.20
2022-08-08T02:40:39.633Z,94.30
2022-08-08T02:42:07.750Z,94.20
2022-08-08T02:44:39.320Z,94.50
2022-08-08T02:45:51.816Z,94.70
2022-08-08T02:47:29.078Z,94.40
2022-08-08T02:49:02.984Z,94.50
2022-08-08T02:50:56.060Z,94.50
2022-08-08T02:52:32.618Z,94.40
2022-08-08T02:54:22.298Z,94.60
2022-08-08T02:56:08.705Z,94.50
2022-08-08T02:57:51.329Z,94.90
2022-08-08T02:59:56.859Z,94.40
2022-08-08T03:01:47.263Z,94.40
2022-08-08T03:05:00.679Z,94.60
2022-08-08T03:05:53.488Z,95.00
2022-08-08T03:07:41.950Z,94.80
2022-08-08T03:09:41.359Z,95.30
2022-08-08T03:11:31.850Z,95.30
2022-08-08T03:15:54.472Z,95.40
2022-08-08T03:15:57.188Z,95.20
2022-08-08T03:16:35.671Z,94.90
2022-08-08T03:18:00.083Z,95.10
2022-08-08T03:19:23.807Z,95.40
2022-08-08T03:20:25.521Z,95.20
2022-08-08T03:21:48.060Z,95.00
2022-08-08T03:22:56.474Z,95.00
2022-08-08T03:24:02.112Z,95.20
2022-08-08T03:25:14.663Z,95.40
2022-08-08T03:26:30.566Z,95.90
2022-08-08T03:27:41.768Z,95.40
2022-08-08T03:28:51.102Z,95.40
2022-08-08T03:30:02.364Z,95.70
2022-08-08T03:31:25.291Z,95.40
2022-08-08T03:32:47.638Z,95.50
2022-08-08T03:34:01.299Z,95.50
2022-08-08T03:35:05.063Z,95.50
2022-08-08T03:36:16.020Z,95.80
2022-08-08T03:38:00.255Z,95.70
2022-08-08T03:38:58.464Z,95.80
2022-08-08T03:40:10.870Z,95.90
2022-08-08T03:42:26.624Z,95.80
2022-08-08T03:43:16.555Z,95.70
2022-08-08T03:44:25.666Z,95.40
2022-08-08T03:46:07.105Z,95.20
2022-08-08T03:46:52.487Z,95.00
2022-08-08T03:48:02.404Z,95.10
2022-08-08T03:49:38.100Z,94.90
2022-08-08T03:50:28.451Z,95.00
2022-08-08T03:51:51.046Z,95.30
2022-08-08T03:52:54.913Z,95.00
2022-08-08T03:54:01.820Z,95.20
2022-08-08T03:55:56.755Z,95.70
2022-08-08T03:56:35.646Z,95.50
2022-08-08T03:58:34.293Z,95.30
2022-08-08T03:59:00.882Z,95.20
2022-08-08T04:00:11.153Z,95.40
2022-08-08T04:01:25.896Z,95.20
2022-08-08T04:02:36.813Z,95.20
2022-08-08T04:03:58.835Z,95.00
2022-08-08T04:05:04.487Z,95.30
2022-08-08T04:06:13.414Z,95.50
2022-08-08T04:07:16.504Z,95.40
2022-08-08T04:08:33.714Z,95.20
2022-08-08T04:09:58.983Z,95.30
2022-08-08T04:11:11.429Z,95.30
2022-08-08T04:12:19.697Z,95.30
2022-08-08T04:13:22.891Z,95.40
2022-08-08T04:14:33.822Z,95.40
2022-08-08T04:15:39.141Z,95.50
2022-08-08T04:16:57.231Z,95.40
2022-08-08T04:18:00.242Z,95.50
2022-08-08T04:19:04.378Z,95.30
2022-08-08T04:20:28.560Z,95.50
2022-08-08T04:21:31.013Z,95.70
2022-08-08T04:22:41.554Z,96.10
2022-08-08T04:24:05.745Z,95.80
2022-08-08T04:25:13.052Z,95.70
2022-08-08T04:26:17.600Z,95.80
2022-08-08T04:28:03.492Z,95.80
2022-08-08T04:28:46.595Z,95.70
2022-08-08T04:29:55.270Z,95.70
2022-08-08T04:31:06.094Z,95.60
2022-08-08T04:32:10.624Z,95.40
2022-08-08T04:33:15.471Z,95.60
2022-08-08T04:34:18.545Z,95.90
2022-08-08T04:35:23.304Z,95.60
2022-08-08T04:36:26.777Z,95.50
2022-08-08T04:37:32.454Z,95.90
2022-08-08T04:38:34.757Z,96.10
2022-08-08T04:40:04.791Z,96.00
2022-08-08T04:41:03.022Z,95.80
2022-08-08T04:42:11.268Z,95.90
2022-08-08T04:43:14.494Z,96.10
2022-08-08T04:44:17.449Z,96.00
2022-08-08T04:45:22.809Z,95.90
2022-08-08T04:46:25.059Z,95.90
2022-08-08T04:47:28.150Z,95.90
2022-08-08T04:48:31.379Z,95.80
2022-08-08T04:50:00.839Z,95.80
2022-08-08T04:50:57.458Z,95.80
2022-08-08T04:52:00.613Z,95.90
2022-08-08T04:53:14.245Z,95.70
2022-08-08T04:54:40.136Z,95.80
2022-08-08T04:55:55.539Z,96.40
2022-08-08T04:57:00.073Z,96.00
2022-08-08T04:58:06.170Z,96.20
2022-08-08T04:59:13.188Z,95.70
2022-08-08T05:00:19.890Z,95.70
2022-08-08T05:01:24.237Z,95.70
2022-08-08T05:02:42.237Z,96.20
2022-08-08T05:04:10.541Z,96.10
2022-08-08T05:05:08.082Z,96.10
2022-08-08T05:06:25.310Z,95.80
2022-08-08T05:07:38.051Z,96.00
2022-08-08T05:08:44.784Z,95.90
2022-08-08T05:09:47.769Z,96.00
2022-08-08T05:10:49.798Z,96.60
2022-08-08T05:11:57.060Z,95.60
2022-08-08T05:13:02.184Z,96.10
2022-08-08T05:14:05.875Z,96.40
2022-08-08T05:15:09.576Z,96.30
2022-08-08T05:16:51.606Z,96.30
2022-08-08T05:17:53.924Z,96.20
2022-08-08T05:18:56.592Z,96.00
2022-08-08T05:20:12.632Z,96.10
2022-08-08T05:21:19.444Z,96.10
2022-08-08T05:22:22.805Z,96.10
2022-08-08T05:23:24.903Z,96.10
2022-08-08T05:24:32.817Z,95.90
2022-08-08T05:25:41.544Z,95.90
2022-08-08T05:26:46.474Z,95.90
2022-08-08T05:27:50.832Z,96.10
2022-08-08T05:29:06.132Z,96.20
2022-08-08T05:30:11.054Z,96.20
2022-08-08T05:32:02.610Z,96.20
2022-08-08T05:32:38.635Z,96.00
2022-08-08T05:33:44.252Z,96.10
2022-08-08T05:34:53.747Z,96.20
2022-08-08T05:36:01.926Z,96.40
2022-08-08T05:37:15.866Z,96.40
2022-08-08T05:38:31.571Z,96.40
2022-08-08T05:39:36.445Z,96.60
2022-08-08T05:40:42.077Z,96.40
2022-08-08T05:41:55.359Z,96.10
2022-08-08T05:43:17.273Z,95.80
2022-08-08T05:44:32.827Z,96.10
2022-08-08T05:45:43.255Z,96.20
2022-08-08T05:47:02.992Z,96.40
2022-08-08T05:48:08.909Z,95.70
2022-08-08T05:49:13.257Z,96.00
2022-08-08T05:50:18.457Z,96.10
2022-08-08T05:51:22.280Z,96.10
2022-08-08T05:52:32.003Z,96.30
2022-08-08T05:54:24.107Z,96.10
2022-08-08T05:55:04.573Z,96.20
2022-08-08T05:56:15.049Z,96.00
2022-08-08T05:57:57.562Z,95.50
2022-08-08T05:58:57.878Z,95.30
2022-08-08T06:00:25.199Z,95.10
2022-08-08T06:01:55.442Z,94.90
2022-08-08T06:03:10.515Z,94.90
2022-08-08T06:04:24.770Z,94.60
2022-08-08T06:05:35.368Z,95.10
2022-08-08T06:06:41.981Z,94.60
2022-08-08T06:07:51.532Z,94.30
2022-08-08T06:09:58.361Z,94.30
2022-08-08T06:10:32.903Z,94.10
2022-08-08T06:11:39.676Z,95.00
2022-08-08T06:12:49.556Z,95.30
2022-08-08T06:13:53.154Z,95.50
2022-08-08T06:14:58.005Z,95.50
2022-08-08T06:16:02.989Z,95.20
2022-08-08T06:17:06.337Z,94.80
2022-08-08T06:18:20.586Z,95.10
2022-08-08T06:19:27.502Z,95.10
2022-08-08T06:20:29.984Z,94.80
2022-08-08T06:21:51.630Z,94.40
2022-08-08T06:22:56.420Z,94.10
2022-08-08T06:24:04.888Z,94.20
2022-08-08T06:25:10.390Z,94.10
2022-08-08T06:26:38.539Z,94.00
2022-08-08T06:27:47.860Z,94.20
2022-08-08T06:28:54.640Z,94.70
2022-08-08T06:30:03.985Z,94.80
2022-08-08T06:31:15.465Z,94.40
2022-08-08T06:32:18.942Z,93.90
2022-08-08T06:33:37.264Z,94.30
2022-08-08T06:35:12.097Z,93.80
2022-08-08T06:36:22.821Z,93.80
2022-08-08T06:37:36.987Z,93.30
2022-08-08T06:38:46.910Z,93.10
2022-08-08T06:39:56.746Z,92.90
2022-08-08T06:41:06.549Z,92.90
2022-08-08T06:42:13.712Z,93.10
2022-08-08T06:43:21.254Z,93.10
2022-08-08T06:44:37.424Z,93.20
2022-08-08T06:45:45.628Z,93.40
2022-08-08T06:46:52.308Z,93.30
2022-08-08T06:48:00.851Z,94.00
2022-08-08T06:49:05.975Z,94.00
2022-08-08T06:50:17.526Z,94.00
2022-08-08T06:51:22.645Z,93.70
2022-08-08T06:52:27.579Z,93.50
2022-08-08T06:53:39.342Z,93.80
2022-08-08T06:54:44.060Z,93.20
2022-08-08T06:56:02.626Z,93.10
2022-08-08T06:57:08.718Z,92.60
2022-08-08T06:58:10.797Z,92.90
2022-08-08T06:59:14.632Z,92.90
2022-08-08T07:00:17.330Z,93.20
2022-08-08T07:02:26.531Z,92.90
2022-08-08T07:03:17.704Z,93.10
2022-08-08T07:04:38.082Z,92.50
2022-08-08T07:06:02.191Z,92.60
2022-08-08T07:07:11.180Z,92.40
2022-08-08T07:08:19.706Z,92.10
2022-08-08T07:09:27.042Z,91.80
2022-08-08T07:10:34.938Z,91.90
2022-08-08T07:11:51.244Z,92.00
2022-08-08T07:12:56.440Z,92.00
2022-08-08T07:14:01.739Z,92.10
2022-08-08T07:15:23.168Z,92.50
2022-08-08T07:16:51.018Z,92.60
2022-08-08T07:18:35.570Z,92.70
2022-08-08T07:19:39.116Z,92.20
2022-08-08T07:20:50.430Z,91.80
2022-08-08T07:22:05.660Z,92.00
2022-08-08T07:23:23.403Z,92.20
2022-08-08T07:24:29.750Z,92.40
2022-08-08T07:25:34.969Z,92.30
2022-08-08T07:26:41.270Z,92.30
2022-08-08T07:28:07.495Z,92.40
2022-08-08T07:29:58.672Z,92.60
2022-08-08T07:30:34.874Z,92.70
2022-08-08T07:31:37.031Z,92.40
2022-08-08T07:32:40.979Z,92.10
2022-08-08T07:33:58.857Z,91.50
2022-08-08T07:35:06.283Z,91.20
2022-08-08T07:36:11.931Z,91.40
2022-08-08T07:37:18.679Z,91.50
2022-08-08T07:38:25.559Z,91.30
2022-08-08T07:39:35.469Z,91.00
2022-08-08T07:40:50.644Z,91.10
2022-08-08T07:42:03.755Z,91.50
2022-08-08T07:43:08.800Z,91.40
2022-08-08T07:44:40.624Z,91.30
2022-08-08T07:46:05.737Z,91.50
2022-08-08T07:46:58.980Z,91.40
2022-08-08T07:48:03.132Z,91.20
2022-08-08T07:49:09.637Z,91.40
2022-08-08T07:50:11.753Z,91.40
2022-08-08T07:51:23.105Z,91.30
2022-08-08T07:52:29.002Z,91.40
2022-08-08T07:54:01.459Z,91.60
2022-08-08T07:55:05.329Z,91.60
2022-08-08T07:56:13.320Z,91.10
2022-08-08T07:57:29.830Z,91.00
2022-08-08T07:58:46.628Z,91.00
2022-08-08T08:00:03.039Z,91.20
2022-08-08T08:01:06.384Z,91.10
2022-08-08T08:02:33.209Z,91.10
2022-08-08T08:03:47.870Z,91.10
2022-08-08T08:04:56.224Z,91.70
2022-08-08T08:06:00.793Z,91.30
2022-08-08T08:07:03.127Z,90.90
2022-08-08T08:08:11.451Z,91.10
2022-08-08T08:09:19.416Z,91.10
2022-08-08T08:10:30.372Z,90.80
2022-08-08T08:11:51.676Z,90.80
2022-08-08T08:13:25.276Z,90.60
2022-08-08T08:14:33.070Z,90.90
2022-08-08T08:15:37.051Z,90.60
2022-08-08T08:16:48.513Z,90.70
2022-08-08T08:17:59.124Z,90.70
2022-08-08T08:19:04.754Z,90.90
2022-08-08T08:20:11.220Z,90.90
2022-08-08T08:21:19.015Z,90.90
2022-08-08T08:22:31.707Z,91.10
2022-08-08T08:23:40.620Z,91.20
2022-08-08T08:24:46.703Z,91.30
2022-08-08T08:25:52.054Z,91.00
2022-08-08T08:26:58.744Z,91.00
2022-08-08T08:28:02.998Z,91.00
2022-08-08T08:29:06.418Z,91.10
2022-08-08T08:30:09.622Z,91.00
2022-08-08T08:31:12.688Z,90.80
2022-08-08T08:32:31.768Z,91.00
2022-08-08T08:33:39.860Z,91.10
2022-08-08T08:34:49.238Z,91.50
2022-08-08T08:36:19.627Z,91.10
2022-08-08T08:37:18.192Z,91.10
2022-08-08T08:38:22.714Z,91.70
2022-08-08T08:40:00.496Z,91.50
2022-08-08T08:40:51.426Z,91.40
2022-08-08T08:41:54.128Z,91.60
2022-08-08T08:42:57.701Z,91.40
2022-08-08T08:44:14.172Z,91.50
2022-08-08T08:45:22.613Z,91.90
2022-08-08T08:46:28.273Z,91.60
2022-08-08T08:47:43.772Z,91.70
2022-08-08T08:48:49.613Z,91.70
2022-08-08T08:49:51.859Z,91.60
2022-08-08T08:50:56.872Z,91.70
2022-08-08T08:52:02.858Z,92.00
2022-08-08T08:53:27.916Z,91.90
2022-08-08T08:54:36.516Z,91.50
2022-08-08T08:55:41.038Z,91.50
2022-08-08T08:56:44.050Z,91.50
2022-08-08T08:57:51.391Z,91.50
2022-08-08T08:58:56.711Z,91.50
2022-08-08T09:00:05.600Z,91.50
2022-08-08T09:01:16.394Z,91.50
2022-08-08T09:02:21.357Z,91.60
2022-08-08T09:03:45.495Z,92.40
2022-08-08T09:04:52.563Z,92.00
2022-08-08T09:05:56.703Z,91.90
2022-08-08T09:07:03.054Z,91.90
2022-08-08T09:08:18.164Z,92.10
2022-08-08T09:09:35.084Z,92.20
2022-08-08T09:10:44.602Z,92.10
2022-08-08T09:12:06.030Z,92.20
2022-08-08T09:13:11.585Z,92.00
2022-08-08T09:14:15.105Z,92.10
2022-08-08T09:15:41.669Z,92.10
2022-08-08T09:16:40.879Z,92.10
2022-08-08T09:17:55.438Z,92.30
2022-08-08T09:18:58.304Z,92.60
2022-08-08T09:22:00.314Z,92.60
2022-08-08T09:22:00.704Z,92.60
2022-08-08T09:22:53.182Z,93.40
2022-08-08T09:23:59.997Z,93.60
2022-08-08T09:25:07.520Z,93.30
2022-08-08T09:26:21.347Z,93.00
2022-08-08T09:27:55.599Z,93.00
2022-08-08T09:28:48.000Z,93.00
2022-08-08T09:29:53.269Z,92.80
2022-08-08T09:31:12.803Z,93.00
2022-08-08T09:32:19.509Z,93.90
2022-08-08T09:34:15.685Z,93.60
2022-08-08T09:34:53.181Z,93.30
2022-08-08T09:35:57.235Z,93.30
2022-08-08T09:37:57.864Z,93.20
2022-08-08T09:38:52.850Z,93.30
2022-08-08T09:40:04.608Z,94.10
2022-08-08T09:41:17.295Z,93.80
2022-08-08T09:42:25.950Z,94.10
2022-08-08T09:43:40.725Z,94.00
2022-08-08T09:45:15.508Z,94.00
2022-08-08T09:46:25.639Z,94.00
2022-08-08T09:48:04.116Z,94.00
2022-08-08T09:49:18.368Z,94.50
2022-08-08T09:50:27.002Z,94.40
2022-08-08T09:51:41.570Z,94.30
2022-08-08T09:53:02.910Z,94.70
2022-08-08T09:54:14.032Z,94.20
2022-08-08T09:55:31.645Z,94.00
2022-08-08T09:56:49.126Z,93.10
2022-08-08T09:57:59.843Z,92.50
2022-08-08T09:59:32.006Z,92.20
2022-08-08T10:00:53.406Z,92.30
2022-08-08T10:01:59.777Z,91.60
2022-08-08T10:03:07.097Z,91.10
2022-08-08T10:04:35.447Z,90.10
2022-08-08T10:05:39.811Z,87.30
2022-08-08T10:06:44.914Z,84.90
2022-08-08T10:08:01.318Z,84.70
2022-08-08T10:09:04.746Z,84.00
2022-08-08T10:10:10.510Z,84.30
2022-08-08T10:12:26.623Z,84.80
2022-08-08T10:12:54.340Z,82.80
2022-08-08T10:14:06.026Z,85.50
2022-08-08T10:15:17.600Z,87.50
2022-08-08T10:16:22.184Z,86.80
2022-08-08T10:17:56.013Z,86.50
2022-08-08T10:19:04.216Z,84.90
2022-08-08T10:20:08.907Z,86.40
2022-08-08T10:21:25.793Z,85.70
2022-08-08T10:22:40.516Z,83.80
2022-08-08T10:24:28.290Z,84.10
2022-08-08T10:25:36.233Z,83.70
2022-08-08T10:26:59.802Z,80.50
2022-08-08T10:28:04.150Z,78.00
2022-08-08T10:29:11.244Z,77.20
2022-08-08T10:30:16.616Z,76.70
2022-08-08T10:32:08.666Z,77.20
2022-08-08T10:33:12.352Z,77.30
2022-08-08T10:34:18.069Z,78.70
2022-08-08T10:36:07.208Z,80.00
2022-08-08T10:36:47.961Z,83.00
2022-08-08T10:37:56.182Z,84.20
2022-08-08T10:39:07.034Z,85.80
2022-08-08T10:40:19.658Z,87.10
2022-08-08T10:41:35.700Z,86.60
2022-08-08T10:42:51.394Z,88.10
2022-08-08T10:43:53.698Z,88.60
2022-08-08T10:45:02.664Z,88.70
2022-08-08T10:46:27.629Z,88.90
2022-08-08T10:47:44.075Z,88.80
2022-08-08T10:48:57.764Z,90.30
2022-08-08T10:50:05.321Z,90.50
2022-08-08T10:51:14.069Z,90.30
2022-08-08T10:52:26.760Z,90.00
2022-08-08T10:53:56.664Z,90.10
2022-08-08T10:55:05.188Z,90.60
2022-08-08T10:56:10.261Z,90.90
2022-08-08T10:57:45.377Z,91.40
2022-08-08T10:58:59.095Z,91.50
2022-08-08T11:00:02.069Z,90.90
2022-08-08T11:01:10.863Z,90.70
2022-08-08T11:02:16.268Z,90.60
2022-08-08T11:03:52.850Z,90.70
2022-08-08T11:04:53.066Z,91.00
2022-08-08T11:06:00.271Z,90.60
2022-08-08T11:07:03.046Z,91.10
2022-08-08T11:08:30.769Z,91.70
2022-08-08T11:09:32.003Z,91.70
2022-08-08T11:10:37.039Z,92.00
2022-08-08T11:12:06.286Z,91.40
2022-08-08T11:14:27.602Z,90.90
2022-08-08T11:15:31.146Z,91.60
2022-08-08T11:16:36.620Z,91.60
2022-08-08T11:17:58.100Z,91.40
2022-08-08T11:19:05.358Z,91.60
2022-08-08T11:20:27.386Z,91.80
2022-08-08T11:21:35.684Z,91.80
2022-08-08T11:22:41.995Z,92.30
2022-08-08T11:23:44.649Z,92.60
2022-08-08T11:25:14.493Z,92.60
2022-08-08T11:26:23.505Z,92.70
2022-08-08T11:27:37.269Z,93.00
2022-08-08T11:28:41.222Z,92.60
2022-08-08T11:30:18.471Z,93.00
2022-08-08T11:31:12.714Z,92.90
2022-08-08T11:32:16.492Z,92.30
2022-08-08T11:33:51.651Z,92.60
2022-08-08T11:35:24.458Z,92.40
2022-08-08T11:36:15.601Z,92.70
2022-08-08T11:37:18.248Z,92.60
2022-08-08T11:38:54.418Z,92.60
2022-08-08T11:40:01.072Z,92.70
2022-08-08T11:41:07.198Z,92.90
2022-08-08T11:42:10.975Z,92.80
2022-08-08T11:43:15.415Z,93.00
2022-08-08T11:44:28.819Z,93.20
2022-08-08T11:45:43.670Z,93.50
2022-08-08T11:46:57.845Z,93.00
2022-08-08T11:48:04.398Z,93.70
2022-08-08T11:49:09.633Z,93.20
2022-08-08T11:50:14.814Z,93.20
2022-08-08T11:51:38.267Z,92.90
2022-08-08T11:52:47.318Z,93.00
2022-08-08T11:53:55.149Z,93.20
2022-08-08T11:55:02.917Z,92.60
2022-08-08T11:56:19.786Z,92.70
2022-08-08T11:57:27.590Z,92.70
2022-08-08T11:58:33.812Z,93.20
2022-08-08T12:00:00.175Z,92.70
2022-08-08T12:01:12.038Z,92.70
2022-08-08T12:02:40.032Z,92.80
2022-08-08T12:03:47.426Z,91.70
2022-08-08T12:04:51.307Z,90.90
2022-08-08T12:05:55.123Z,90.70
2022-08-08T12:07:03.933Z,91.00
2022-08-08T12:08:11.432Z,90.80
2022-08-08T12:09:17.195Z,90.60
2022-08-08T12:10:23.806Z,91.20
2022-08-08T12:11:28.541Z,91.80
2022-08-08T12:12:45.938Z,91.20
2022-08-08T12:14:02.820Z,91.50
2022-08-08T12:15:09.481Z,90.50
2022-08-08T12:16:15.633Z,90.70
2022-08-08T12:17:17.847Z,91.00
2022-08-08T12:18:24.330Z,91.80
2022-08-08T12:20:38.490Z,92.30
2022-08-08T12:22:00.115Z,91.70
2022-08-08T12:23:04.878Z,89.80
2022-08-08T12:24:11.408Z,90.00
2022-08-08T12:25:21.454Z,86.40
2022-08-08T12:26:38.749Z,85.00
2022-08-08T12:27:47.907Z,85.30
2022-08-08T12:28:57.818Z,87.00
2022-08-08T12:30:02.156Z,90.00
2022-08-08T12:31:08.665Z,90.10
2022-08-08T12:32:19.711Z,90.20
2022-08-08T12:33:37.100Z,90.60
2022-08-08T12:35:04.590Z,91.20
2022-08-08T12:36:16.726Z,91.40
2022-08-08T12:37:20.940Z,91.40
2022-08-08T12:38:31.131Z,91.80
2022-08-08T12:40:02.043Z,92.20
2022-08-08T12:40:59.192Z,91.60
2022-08-08T12:42:07.736Z,92.00
2022-08-08T12:43:47.633Z,91.30
2022-08-08T12:45:20.066Z,91.50
2022-08-08T12:46:29.018Z,89.80
2022-08-08T12:47:59.030Z,90.40
2022-08-08T12:49:20.715Z,90.30
2022-08-08T12:50:18.497Z,90.30
2022-08-08T12:51:39.941Z,90.70
2022-08-08T12:52:53.531Z,90.50
2022-08-08T12:53:59.370Z,91.10
2022-08-08T12:55:09.416Z,90.80
2022-08-08T12:56:24.138Z,90.70
2022-08-08T12:57:31.113Z,90.70
2022-08-08T12:58:46.051Z,90.70
2022-08-08T13:00:04.586Z,91.00
2022-08-08T13:01:11.012Z,90.80
2022-08-08T13:02:28.435Z,90.60
2022-08-08T13:03:35.331Z,90.10
2022-08-08T13:04:49.949Z,89.00
2022-08-08T13:06:13.878Z,89.60
2022-08-08T13:07:17.698Z,89.40
2022-08-08T13:08:53.773Z,89.60
2022-08-08T13:10:05.650Z,90.40
2022-08-08T13:11:22.493Z,90.40
2022-08-08T13:12:29.472Z,90.30
2022-08-08T13:13:34.979Z,90.20
2022-08-08T13:14:53.101Z,90.10
2022-08-08T13:15:56.750Z,90.20
2022-08-08T13:16:59.371Z,90.10
2022-08-08T13:18:11.513Z,90.10
2022-08-08T13:19:18.187Z,90.20
2022-08-08T13:20:25.988Z,89.60
2022-08-08T13:21:48.901Z,89.10
2022-08-08T13:23:08.102Z,89.40
2022-08-08T13:24:18.538Z,89.70
2022-08-08T13:25:27.213Z,89.70
2022-08-08T13:26:33.159Z,90.00
2022-08-08T13:27:36.134Z,90.20
2022-08-08T13:28:42.295Z,89.40
2022-08-08T13:29:54.527Z,89.40
2022-08-08T13:30:56.944Z,89.70
2022-08-08T13:32:04.223Z,90.00
2022-08-08T13:33:08.106Z,89.60
2022-08-08T13:34:29.487Z,89.20
2022-08-08T13:35:43.987Z,89.30
2022-08-08T13:36:55.153Z,89.00
2022-08-08T13:38:06.844Z,89.00
2022-08-08T13:39:09.760Z,84.80
2022-08-08T13:40:17.888Z,84.20
2022-08-08T13:41:38.859Z,85.20
2022-08-08T13:42:47.185Z,84.80
2022-08-08T13:43:50.659Z,85.60
2022-08-08T13:45:00.399Z,85.50
2022-08-08T13:46:27.097Z,85.70
2022-08-08T13:47:31.661Z,86.00
2022-08-08T13:48:44.033Z,84.90
2022-08-08T13:50:35.829Z,85.70
2022-08-08T13:51:24.852Z,86.70
2022-08-08T13:52:48.245Z,85.30
2022-08-08T13:53:53.444Z,85.10
2022-08-08T13:55:07.418Z,85.50
2022-08-08T13:56:11.708Z,86.00
2022-08-08T13:57:16.735Z,84.50
2022-08-08T13:58:20.162Z,84.10
2022-08-08T13:59:32.818Z,84.60
2022-08-08T14:00:44.984Z,84.90
2022-08-08T14:01:56.726Z,84.90
2022-08-08T14:03:01.509Z,84.50
2022-08-08T14:04:05.283Z,84.50
2022-08-08T14:05:22.049Z,84.90
2022-08-08T14:06:33.378Z,85.00
2022-08-08T14:07:39.472Z,85.80
2022-08-08T14:08:46.053Z,86.40
2022-08-08T14:10:04.790Z,87.10
2022-08-08T14:11:13.787Z,87.50
2022-08-08T14:12:19.326Z,87.70
2022-08-08T14:13:33.361Z,87.70
2022-08-08T14:14:42.226Z,87.80
2022-08-08T14:15:50.274Z,87.40
2022-08-08T14:16:52.889Z,88.20
2022-08-08T14:17:59.329Z,88.20
2022-08-08T14:19:22.818Z,88.30
2022-08-08T14:20:56.255Z,88.00
2022-08-08T14:21:59.998Z,88.30
2022-08-08T14:23:21.465Z,88.90
2022-08-08T14:24:38.869Z,89.80
2022-08-08T14:25:53.979Z,88.70
2022-08-08T14:26:57.270Z,89.00
2022-08-08T14:28:09.559Z,89.30
2022-08-08T14:29:28.267Z,89.70
2022-08-08T14:30:35.460Z,89.70
2022-08-08T14:32:09.099Z,88.80
2022-08-08T14:33:15.183Z,89.10
2022-08-08T14:34:22.854Z,89.60
2022-08-08T14:35:35.204Z,89.80
2022-08-08T14:36:40.697Z,89.40
2022-08-08T14:37:59.701Z,89.30
2022-08-08T14:39:11.697Z,89.50
2022-08-08T14:40:20.844Z,89.90
2022-08-08T14:41:45.566Z,90.20
2022-08-08T14:42:56.694Z,90.00
2022-08-08T14:44:10.082Z,90.30
2022-08-08T14:45:15.393Z,90.10
2022-08-08T14:46:30.923Z,90.40
2022-08-08T14:47:46.851Z,90.30
2022-08-08T14:48:59.002Z,90.40
2022-08-08T14:50:21.442Z,90.70
2022-08-08T14:51:51.836Z,90.80
2022-08-08T14:52:57.483Z,90.60
2022-08-08T14:54:03.690Z,90.50
2022-08-08T14:55:08.642Z,90.70
2022-08-08T14:56:12.094Z,90.60
2022-08-08T14:57:16.449Z,90.60
2022-08-08T14:58:20.337Z,90.90
2022-08-08T14:59:39.823Z,90.50
2022-08-08T15:00:46.543Z,90.60
2022-08-08T15:01:52.112Z,90.70
2022-08-08T15:03:14.316Z,90.60
2022-08-08T15:04:19.347Z,90.80
2022-08-08T15:05:23.800Z,91.10
2022-08-08T15:06:45.846Z,91.10
2022-08-08T15:07:59.696Z,90.80
2022-08-08T15:09:04.197Z,90.80
2022-08-08T15:10:09.304Z,90.50
2022-08-08T15:11:19.181Z,90.40
2022-08-08T15:12:36.734Z,90.80
2022-08-08T15:14:03.488Z,91.00
2022-08-08T15:15:06.576Z,91.30
2022-08-08T15:16:11.963Z,91.50
2022-08-08T15:17:17.102Z,91.10
2022-08-08T15:18:22.305Z,90.80
2022-08-08T15:19:32.719Z,91.20
2022-08-08T15:20:34.911Z,90.90
2022-08-08T15:21:42.854Z,91.20
2022-08-08T15:22:46.231Z,91.00
2022-08-08T15:23:51.025Z,91.20
2022-08-08T15:24:54.982Z,91.40
2022-08-08T15:25:57.841Z,91.50
2022-08-08T15:27:19.936Z,91.40
2022-08-08T15:28:32.708Z,91.40
2022-08-08T15:29:36.382Z,91.70
2022-08-08T15:30:40.910Z,91.30
2022-08-08T15:31:56.262Z,91.30
2022-08-08T15:33:08.085Z,91.60
2022-08-08T15:34:29.414Z,91.50
2022-08-08T15:35:39.155Z,91.30
2022-08-08T15:36:42.441Z,91.50
2022-08-08T15:37:46.265Z,91.40
2022-08-08T15:38:51.544Z,91.40
2022-08-08T15:39:54.875Z,91.50
2022-08-08T15:40:56.931Z,91.50
2022-08-08T15:42:00.627Z,92.00
2022-08-08T15:43:34.864Z,91.90
2022-08-08T15:44:28.297Z,91.70
2022-08-08T15:45:31.766Z,91.70
2022-08-08T15:46:36.130Z,92.00
2022-08-08T15:47:39.117Z,92.00
2022-08-08T15:48:41.217Z,92.40
2022-08-08T15:49:47.585Z,92.00
2022-08-08T15:51:01.877Z,91.90
2022-08-08T15:52:08.661Z,91.70
2022-08-08T15:53:10.997Z,92.10
2022-08-08T15:54:37.352Z,92.20
2022-08-08T15:55:41.075Z,92.10
2022-08-08T15:56:44.254Z,91.70
2022-08-08T15:57:46.206Z,92.10
2022-08-08T15:58:50.282Z,91.90
2022-08-08T16:00:05.563Z,92.10
2022-08-08T16:01:15.869Z,92.00
2022-08-08T16:02:18.006Z,91.90
2022-08-08T16:03:21.050Z,92.00
2022-08-08T16:04:29.469Z,92.10
2022-08-08T16:05:35.407Z,91.90